createdAt,value
2022-09-10T00:01:30.796Z,53.60
2022-09-10T00:03:57.930Z,53.58
2022-09-10T00:06:27.655Z,52.64
2022-09-10T00:08:58.438Z,53.21
2022-09-10T00:11:26.805Z,53.39
2022-09-10T00:13:53.353Z,54.43
2022-09-10T00:16:19.985Z,54.68
2022-09-10T00:18:47.816Z,54.83
2022-09-10T00:21:17.866Z,54.08
2022-09-10T00:23:47.215Z,54.54
2022-09-10T00:26:19.023Z,55.03
2022-09-10T00:28:46.419Z,53.68
2022-09-10T00:31:13.697Z,54.17
2022-09-10T00:33:41.654Z,53.93
2022-09-10T00:36:29.355Z,54.94
2022-09-10T00:38:59.209Z,54.29
2022-09-10T00:41:26.695Z,53.99
2022-09-10T00:44:02.330Z,53.63
2022-09-10T00:46:42.632Z,53.71
2022-09-10T00:49:14.635Z,53.68
2022-09-10T00:51:42.040Z,53.48
2022-09-10T00:54:08.684Z,53.28
2022-09-10T00:56:35.363Z,52.90
2022-09-10T00:59:03.865Z,52.55
2022-09-10T01:01:33.442Z,52.84
2022-09-10T01:04:01.257Z,52.75
2022-09-10T01:06:28.576Z,52.15
2022-09-10T01:08:55.352Z,53.58
2022-09-10T01:11:38.433Z,52.90
2022-09-10T01:14:24.200Z,52.88
2022-09-10T01:17:06.289Z,52.95
2022-09-10T01:20:12.063Z,52.28
2022-09-10T01:23:03.947Z,52.64
2022-09-10T01:25:43.818Z,53.40
2022-09-10T01:28:19.967Z,52.98
2022-09-10T01:30:53.160Z,53.51
2022-09-10T01:33:34.097Z,52.91
2022-09-10T01:36:06.104Z,53.17
2022-09-10T01:38:35.680Z,53.64
2022-09-10T01:41:04.833Z,54.09
2022-09-10T01:43:38.043Z,53.52
2022-09-10T01:46:25.204Z,53.79
2022-09-10T01:49:31.360Z,53.53
2022-09-10T01:52:21.820Z,52.50
2022-09-10T01:55:07.115Z,52.44
2022-09-10T01:57:55.569Z,52.66
2022-09-10T02:00:28.067Z,54.32
2022-09-10T02:03:04.369Z,53.64
2022-09-10T02:05:36.298Z,54.50
2022-09-10T02:08:11.088Z,54.17
2022-09-10T02:11:03.407Z,54.10
2022-09-10T02:13:34.978Z,53.43
2022-09-10T02:16:38.790Z,54.09
2022-09-10T02:19:06.368Z,55.05
2022-09-10T02:21:33.863Z,55.62
2022-09-10T02:24:08.971Z,54.57
2022-09-10T02:26:39.582Z,54.38
2022-09-10T02:29:08.270Z,54.63
2022-09-10T02:31:35.710Z,53.66
2022-09-10T02:34:05.192Z,52.88
2022-09-10T02:36:32.303Z,52.75
2022-09-10T02:39:00.302Z,52.82
2022-09-10T02:41:28.603Z,52.71
2022-09-10T02:43:55.461Z,52.30
2022-09-10T02:46:22.164Z,51.92
2022-09-10T02:48:48.821Z,52.63
2022-09-10T02:51:15.690Z,52.74
2022-09-10T02:53:43.234Z,52.67
2022-09-10T02:56:10.074Z,52.53
2022-09-10T02:58:37.248Z,52.38
2022-09-10T03:01:10.689Z,52.30
2022-09-10T03:03:39.096Z,52.22
2022-09-10T03:06:06.093Z,52.45
2022-09-10T03:08:32.825Z,52.19
2022-09-10T03:10:59.966Z,52.25
2022-09-10T03:13:28.281Z,52.38
2022-09-10T03:16:04.002Z,52.25
2022-09-10T03:18:33.738Z,52.24
2022-09-10T03:21:15.096Z,52.70
2022-09-10T03:23:43.608Z,53.46
2022-09-10T03:26:11.617Z,52.82
2022-09-10T03:28:38.551Z,52.20
2022-09-10T03:31:08.082Z,53.21
2022-09-10T03:33:40.958Z,52.74
2022-09-10T03:36:09.572Z,53.05
2022-09-10T03:38:36.400Z,53.40
2022-09-10T03:41:03.032Z,53.26
2022-09-10T03:43:31.047Z,54.50
2022-09-10T03:45:58.465Z,53.25
2022-09-10T03:48:25.121Z,53.56
2022-09-10T03:50:52.021Z,53.72
2022-09-10T03:53:19.373Z,53.07
2022-09-10T03:55:47.846Z,53.54
2022-09-10T03:58:17.758Z,53.73
2022-09-10T04:00:46.309Z,53.25
2022-09-10T04:03:14.450Z,53.87
2022-09-10T04:05:45.154Z,53.16
2022-09-10T04:08:14.008Z,53.58
2022-09-10T04:10:42.459Z,53.20
2022-09-10T04:13:09.338Z,53.83
2022-09-10T04:15:38.013Z,54.27
2022-09-10T04:18:06.071Z,54.29
2022-09-10T04:20:33.422Z,54.47
2022-09-10T04:23:07.091Z,53.66
2022-09-10T04:25:36.054Z,54.34
2022-09-10T04:28:03.254Z,53.34
2022-09-10T04:30:30.991Z,53.96
2022-09-10T04:32:57.618Z,53.29
2022-09-10T04:35:24.347Z,54.00
2022-09-10T04:37:50.913Z,54.02
2022-09-10T04:40:17.636Z,52.56
2022-09-10T04:42:44.170Z,53.20
2022-09-10T04:45:11.976Z,53.72
2022-09-10T04:47:38.868Z,53.53
2022-09-10T04:50:07.259Z,52.88
2022-09-10T04:52:34.320Z,53.83
2022-09-10T04:55:00.869Z,52.79
2022-09-10T04:57:27.945Z,53.08
2022-09-10T04:59:54.542Z,52.48
2022-09-10T05:02:21.906Z,52.96
2022-09-10T05:04:48.543Z,52.23
2022-09-10T05:07:15.177Z,52.42
2022-09-10T05:09:42.155Z,52.57
2022-09-10T05:12:08.673Z,53.14
2022-09-10T05:14:35.201Z,53.19
2022-09-10T05:17:03.221Z,53.97
2022-09-10T05:19:30.547Z,53.30
2022-09-10T05:22:02.962Z,53.58
2022-09-10T05:24:34.366Z,52.34
2022-09-10T05:27:03.406Z,53.17
2022-09-10T05:29:30.130Z,53.70
2022-09-10T05:31:57.903Z,53.11
2022-09-10T05:34:25.462Z,53.58
2022-09-10T05:41:43.530Z,53.15
2022-09-10T05:44:10.598Z,53.77
2022-09-10T05:46:37.881Z,54.23
2022-09-10T05:49:12.522Z,53.63
2022-09-10T05:51:39.610Z,52.98
2022-09-10T05:54:08.132Z,52.66
2022-09-10T05:56:35.267Z,52.45
2022-09-10T05:59:03.932Z,52.79
2022-09-10T06:01:32.057Z,52.56
2022-09-10T06:03:59.545Z,52.54
2022-09-10T06:06:28.288Z,53.19
2022-09-10T06:09:04.374Z,51.78
2022-09-10T06:11:43.985Z,52.24
2022-09-10T06:14:11.271Z,52.17
2022-09-10T06:16:37.902Z,52.52
2022-09-10T06:19:06.262Z,52.13
2022-09-10T06:21:34.527Z,51.61
2022-09-10T06:24:02.011Z,52.08
2022-09-10T06:26:32.786Z,52.67
2022-09-10T06:29:05.088Z,52.17
2022-09-10T06:31:34.669Z,52.70
2022-09-10T06:34:02.056Z,51.35
2022-09-10T06:36:30.281Z,51.42
2022-09-10T06:38:57.962Z,51.52
2022-09-10T06:41:25.346Z,52.08
2022-09-10T06:43:58.943Z,52.71
2022-09-10T06:49:25.282Z,52.94
2022-09-10T06:51:52.345Z,53.72
2022-09-10T06:54:19.317Z,53.65
2022-09-10T06:56:49.012Z,53.66
2022-09-10T06:59:16.945Z,53.03
2022-09-10T07:01:47.631Z,53.26
2022-09-10T07:04:15.297Z,53.39
2022-09-10T07:06:42.868Z,53.50
2022-09-10T07:09:14.301Z,52.57
2022-09-10T07:11:58.123Z,52.97
2022-09-10T07:14:25.429Z,53.52
2022-09-10T07:16:53.373Z,52.80
2022-09-10T07:19:22.909Z,52.93
2022-09-10T07:21:50.070Z,53.75
2022-09-10T07:24:17.046Z,53.55
2022-09-10T07:26:57.646Z,54.00
2022-09-10T07:29:24.435Z,54.97
2022-09-10T07:31:52.477Z,54.32
2022-09-10T07:34:23.038Z,54.43
2022-09-10T07:36:50.669Z,53.83
2022-09-10T07:39:22.325Z,53.79
2022-09-10T07:41:52.231Z,54.33
2022-09-10T07:44:21.423Z,54.15
2022-09-10T07:46:48.254Z,54.32
2022-09-10T07:49:16.721Z,53.69
2022-09-10T07:51:47.085Z,53.35
2022-09-10T07:54:17.016Z,52.63
2022-09-10T07:56:49.007Z,51.95
2022-09-10T07:59:16.037Z,51.48
2022-09-10T08:01:57.429Z,51.48
2022-09-10T08:04:24.693Z,51.96
2022-09-10T08:06:52.679Z,51.52
2022-09-10T08:09:21.847Z,52.11
2022-09-10T08:11:53.527Z,51.89
2022-09-10T08:14:22.664Z,52.25
2022-09-10T08:16:52.513Z,51.70
2022-09-10T08:19:19.936Z,51.46
2022-09-10T08:21:47.569Z,52.06
2022-09-10T08:24:19.982Z,51.95
2022-09-10T08:26:49.598Z,49.98
2022-09-10T08:29:16.822Z,47.73
2022-09-10T08:31:44.518Z,47.83
2022-09-10T08:34:26.306Z,45.54
2022-09-10T08:37:01.985Z,43.58
2022-09-10T08:39:32.820Z,42.09
2022-09-10T08:42:09.232Z,41.72
2022-09-10T08:44:58.536Z,41.10
2022-09-10T08:47:50.227Z,40.79
2022-09-10T08:50:22.662Z,39.13
2022-09-10T08:52:57.650Z,39.26
2022-09-10T08:55:32.027Z,39.63
2022-09-10T08:58:20.780Z,40.17
2022-09-10T09:00:54.510Z,41.65
2022-09-10T09:03:40.282Z,41.26
2022-09-10T09:06:16.747Z,41.10
2022-09-10T09:08:48.704Z,42.88
2022-09-10T09:11:47.562Z,41.16
2022-09-10T09:14:25.393Z,41.58
2022-09-10T09:17:24.380Z,41.39
2022-09-10T09:20:05.950Z,42.54
2022-09-10T09:22:40.162Z,42.52
2022-09-10T09:25:32.737Z,41.88
2022-09-10T09:28:03.234Z,41.56
2022-09-10T09:30:42.396Z,43.75
2022-09-10T09:33:16.284Z,43.04
2022-09-10T09:36:04.823Z,42.90
2022-09-10T09:38:43.303Z,42.92
2022-09-10T09:41:24.632Z,42.32
2022-09-10T09:44:02.473Z,42.36
2022-09-10T09:46:30.288Z,41.34
2022-09-10T09:49:01.933Z,40.61
2022-09-10T09:51:35.711Z,42.90
2022-09-10T09:56:59.004Z,44.07
2022-09-10T09:59:27.742Z,44.18
2022-09-10T10:02:21.516Z,43.92
2022-09-10T10:05:23.078Z,42.84
2022-09-10T10:07:50.702Z,42.65
2022-09-10T10:10:26.144Z,42.60
2022-09-10T10:12:54.481Z,43.14
2022-09-10T10:15:36.582Z,42.19
2022-09-10T10:18:21.421Z,42.74
2022-09-10T10:20:49.808Z,42.91
2022-09-10T10:23:36.393Z,42.90
2022-09-10T10:26:20.262Z,42.82
2022-09-10T10:29:00.509Z,43.21
2022-09-10T10:31:34.693Z,42.67
2022-09-10T10:34:16.642Z,42.07
2022-09-10T10:36:58.098Z,41.63
2022-09-10T10:39:40.892Z,41.79
2022-09-10T10:42:39.092Z,42.14
2022-09-10T10:45:26.583Z,42.65
2022-09-10T10:48:28.823Z,42.41
2022-09-10T10:51:17.974Z,41.91
2022-09-10T10:54:21.814Z,42.70
2022-09-10T10:56:59.711Z,42.70
2022-09-10T10:59:45.315Z,42.96
2022-09-10T11:02:32.556Z,42.48
2022-09-10T11:05:05.078Z,42.11
2022-09-10T11:07:40.932Z,43.16
2022-09-10T11:10:34.558Z,42.73
2022-09-10T11:13:16.506Z,44.24
2022-09-10T11:16:14.913Z,45.11
2022-09-10T11:18:51.879Z,44.15
2022-09-10T11:21:39.926Z,43.14
2022-09-10T11:24:17.081Z,41.29
2022-09-10T11:26:50.428Z,40.10
2022-09-10T11:29:22.922Z,40.33
2022-09-10T11:31:57.502Z,40.47
2022-09-10T11:34:47.766Z,39.41
2022-09-10T11:37:20.286Z,38.76
2022-09-10T11:39:50.248Z,40.45
2022-09-10T11:42:33.961Z,40.09
2022-09-10T11:45:00.430Z,40.61
2022-09-10T11:47:35.144Z,38.79
2022-09-10T11:50:10.603Z,39.24
2022-09-10T11:52:38.114Z,40.47
2022-09-10T11:55:08.405Z,39.17
2022-09-10T11:58:11.472Z,38.33
2022-09-10T12:01:04.787Z,38.52
2022-09-10T12:03:58.415Z,40.20
2022-09-10T12:07:02.262Z,39.39
2022-09-10T12:09:35.170Z,38.14
2022-09-10T12:12:13.937Z,38.15
2022-09-10T12:14:41.326Z,37.60
2022-09-10T12:17:18.402Z,38.83
2022-09-10T12:19:52.106Z,37.51
2022-09-10T12:22:35.606Z,37.08
2022-09-10T12:25:02.958Z,37.77
2022-09-10T12:27:50.244Z,37.23
2022-09-10T12:30:27.416Z,37.81
2022-09-10T12:33:00.291Z,37.02
2022-09-10T12:35:30.288Z,37.41
2022-09-10T12:38:34.402Z,36.98
2022-09-10T12:41:02.103Z,37.38
2022-09-10T12:43:40.818Z,37.12
2022-09-10T12:46:07.686Z,37.13
2022-09-10T12:48:39.031Z,35.91
2022-09-10T12:51:26.112Z,35.10
2022-09-10T12:54:04.531Z,35.70
2022-09-10T12:57:08.943Z,36.50
2022-09-10T12:59:55.303Z,36.71
2022-09-10T13:02:32.506Z,35.34
2022-09-10T13:05:06.472Z,35.25
2022-09-10T13:07:38.587Z,38.10
2022-09-10T13:10:21.547Z,35.34
2022-09-10T13:12:55.087Z,35.24
2022-09-10T13:15:24.848Z,37.49
2022-09-10T13:17:51.388Z,34.62
2022-09-10T13:20:20.839Z,35.90
2022-09-10T13:23:19.159Z,36.25
2022-09-10T13:25:47.609Z,36.21
2022-09-10T13:28:29.142Z,36.66
2022-09-10T13:31:13.248Z,36.08
2022-09-10T13:33:54.625Z,35.24
2022-09-10T13:36:54.724Z,37.64
2022-09-10T13:39:51.000Z,35.79
2022-09-10T13:42:56.999Z,34.90
2022-09-10T13:45:48.814Z,37.60
2022-09-10T13:48:25.690Z,37.92
2022-09-10T13:51:24.108Z,38.13
2022-09-10T13:53:53.041Z,37.47
2022-09-10T13:56:25.008Z,36.94
2022-09-10T13:58:56.279Z,37.43
2022-09-10T14:01:50.475Z,37.55
2022-09-10T14:04:41.874Z,36.75
2022-09-10T14:07:21.167Z,36.08
2022-09-10T14:09:56.694Z,36.07
2022-09-10T14:12:27.952Z,37.24
2022-09-10T14:14:59.029Z,36.82
2022-09-10T14:17:34.065Z,36.25
2022-09-10T14:20:05.424Z,36.38
2022-09-10T14:22:32.430Z,36.16
2022-09-10T14:25:04.036Z,37.90
2022-09-10T14:27:32.677Z,38.34
2022-09-10T14:30:21.064Z,37.50
2022-09-10T14:32:47.809Z,36.34
2022-09-10T14:35:36.152Z,37.67
2022-09-10T14:38:07.206Z,37.57
2022-09-10T14:40:37.697Z,37.03
2022-09-10T14:43:31.211Z,36.84
2022-09-10T14:45:58.441Z,37.83
2022-09-10T14:49:07.960Z,36.93
2022-09-10T14:51:34.476Z,37.74
2022-09-10T14:54:01.713Z,36.74
2022-09-10T14:56:33.350Z,36.18
2022-09-10T14:59:03.514Z,36.98
2022-09-10T15:01:31.639Z,37.14
2022-09-10T15:03:59.782Z,37.59
2022-09-10T15:06:26.976Z,37.19
2022-09-10T15:08:56.047Z,38.22
2022-09-10T15:11:25.307Z,38.96
2022-09-10T15:13:52.594Z,38.61
2022-09-10T15:16:19.145Z,37.43
2022-09-10T15:18:45.646Z,37.25
2022-09-10T15:21:14.911Z,37.76
2022-09-10T15:23:42.032Z,37.83
2022-09-10T15:26:12.564Z,38.53
2022-09-10T15:28:39.315Z,38.70
2022-09-10T15:31:06.456Z,39.37
2022-09-10T15:33:33.409Z,39.49
2022-09-10T15:36:00.357Z,39.54
2022-09-10T15:38:27.014Z,39.68
2022-09-10T15:41:05.566Z,39.79
2022-09-10T15:43:37.069Z,40.24
2022-09-10T15:46:03.667Z,40.32
2022-09-10T15:48:33.393Z,39.46
2022-09-10T15:51:08.958Z,40.11
2022-09-10T15:53:35.882Z,40.27
2022-09-10T15:56:04.377Z,40.94
2022-09-10T15:58:31.307Z,41.16
2022-09-10T16:01:11.697Z,40.74
2022-09-10T16:03:44.251Z,40.78
2022-09-10T16:06:10.946Z,40.92
2022-09-10T16:08:37.791Z,41.18
2022-09-10T16:11:09.767Z,41.05
2022-09-10T16:13:39.080Z,40.80
2022-09-10T16:16:09.226Z,40.88
2022-09-10T16:18:36.607Z,41.89
2022-09-10T16:21:15.448Z,42.02
2022-09-10T16:23:43.013Z,42.04
2022-09-10T16:26:15.710Z,43.07
2022-09-10T16:28:48.630Z,44.59
2022-09-10T16:31:20.743Z,47.03
2022-09-10T16:33:48.386Z,47.12
2022-09-10T16:36:17.461Z,46.83
2022-09-10T16:38:44.145Z,46.46
2022-09-10T16:41:13.167Z,46.07
2022-09-10T16:43:41.490Z,46.97
2022-09-10T16:46:11.133Z,47.20
2022-09-10T16:48:40.099Z,46.88
2022-09-10T16:51:13.205Z,47.00
2022-09-10T16:53:41.001Z,45.83
2022-09-10T16:56:09.963Z,46.15
2022-09-10T16:58:37.022Z,46.74
2022-09-10T17:01:06.122Z,47.14
2022-09-10T17:03:33.090Z,47.81
2022-09-10T17:06:00.034Z,47.15
2022-09-10T17:08:29.060Z,46.86
2022-09-10T17:10:56.664Z,47.03
2022-09-10T17:13:23.665Z,47.90
2022-09-10T17:15:50.641Z,48.28
2022-09-10T17:18:17.146Z,47.91
2022-09-10T17:20:44.160Z,47.76
2022-09-10T17:23:13.332Z,47.62
2022-09-10T17:25:39.822Z,47.50
2022-09-10T17:28:06.586Z,46.82
2022-09-10T17:30:33.239Z,46.94
2022-09-10T17:32:59.757Z,47.30
2022-09-10T17:35:26.591Z,47.36
2022-09-10T17:37:53.389Z,46.32
2022-09-10T17:40:20.735Z,46.54
2022-09-10T17:42:49.089Z,46.07
2022-09-10T17:45:16.131Z,46.23
2022-09-10T17:47:42.629Z,47.33
2022-09-10T17:50:09.326Z,47.42
2022-09-10T17:52:35.842Z,47.10
2022-09-10T17:55:02.679Z,47.17
2022-09-10T17:57:30.091Z,47.06
2022-09-10T17:59:56.589Z,47.58
2022-09-10T18:02:23.233Z,47.31
2022-09-10T18:04:50.210Z,46.75
2022-09-10T18:07:16.727Z,48.09
2022-09-10T18:09:43.247Z,47.02
2022-09-10T18:12:09.785Z,48.40
2022-09-10T18:14:38.341Z,48.81
2022-09-10T18:17:04.894Z,47.90
2022-09-10T18:19:33.037Z,47.26
2022-09-10T18:22:01.403Z,46.54
2022-09-10T18:24:28.352Z,47.52
2022-09-10T18:26:55.017Z,48.32
2022-09-10T18:29:29.870Z,49.15
2022-09-10T18:32:00.557Z,48.32
2022-09-10T18:34:29.519Z,48.04
2022-09-10T18:36:58.976Z,48.76
2022-09-10T18:39:27.291Z,49.62
2022-09-10T18:41:54.959Z,48.78
2022-09-10T18:44:27.400Z,48.86
2022-09-10T18:46:54.206Z,50.90
2022-09-10T18:49:23.346Z,50.32
2022-09-10T18:51:51.035Z,49.55
2022-09-10T18:54:18.535Z,50.15
2022-09-10T18:56:46.940Z,50.66
2022-09-10T18:59:16.623Z,49.67
2022-09-10T19:01:44.305Z,49.33
2022-09-10T19:04:13.706Z,49.36
2022-09-10T19:06:43.331Z,49.25
2022-09-10T19:09:12.669Z,49.17
2022-09-10T19:11:41.829Z,48.65
2022-09-10T19:14:16.140Z,48.12
2022-09-10T19:16:43.006Z,47.64
2022-09-10T19:19:18.251Z,48.59
2022-09-10T19:21:46.771Z,48.14
2022-09-10T19:24:15.018Z,49.31
2022-09-10T19:26:42.007Z,49.25
2022-09-10T19:29:11.737Z,50.05
2022-09-10T19:31:39.723Z,49.08
2022-09-10T19:34:08.208Z,49.50
2022-09-10T19:36:35.825Z,48.60
2022-09-10T19:39:08.867Z,50.36
2022-09-10T19:41:38.990Z,49.31
2022-09-10T19:44:07.486Z,48.91
2022-09-10T19:46:36.463Z,49.23
2022-09-10T19:49:05.924Z,48.73
2022-09-10T19:51:35.302Z,48.44
2022-09-10T19:54:02.732Z,48.03
2022-09-10T19:56:32.797Z,48.61
2022-09-10T19:59:02.394Z,48.30
2022-09-10T20:01:31.391Z,48.13
2022-09-10T20:04:00.967Z,47.96
2022-09-10T20:06:29.828Z,48.35
2022-09-10T20:08:57.100Z,47.73
2022-09-10T20:11:27.574Z,47.90
2022-09-10T20:14:03.903Z,47.96
2022-09-10T20:16:31.308Z,47.77
2022-09-10T20:18:57.884Z,47.95
2022-09-10T20:21:27.779Z,48.27
2022-09-10T20:23:58.410Z,47.96
2022-09-10T20:26:33.709Z,47.95
2022-09-10T20:29:03.882Z,48.13
2022-09-10T20:31:32.266Z,48.48
2022-09-10T20:34:00.824Z,48.55
2022-09-10T20:36:28.425Z,48.37
2022-09-10T20:38:56.021Z,48.86
2022-09-10T20:41:23.400Z,49.84
2022-09-10T20:43:51.696Z,48.89
2022-09-10T20:46:20.395Z,49.16
2022-09-10T20:48:49.189Z,49.28
2022-09-10T20:51:20.531Z,48.72
2022-09-10T20:53:48.358Z,49.20
2022-09-10T20:56:17.736Z,48.82
2022-09-10T20:58:45.901Z,49.01
2022-09-10T21:01:18.789Z,48.79
2022-09-10T21:03:47.855Z,48.52
2022-09-10T21:06:19.521Z,49.13
2022-09-10T21:08:47.619Z,49.02
2022-09-10T21:11:16.980Z,48.84
2022-09-10T21:13:46.374Z,49.34
2022-09-10T21:16:15.662Z,49.07
2022-09-10T21:18:48.808Z,48.67
2022-09-10T21:21:21.185Z,48.63
2022-09-10T21:23:53.463Z,48.49
2022-09-10T21:26:23.203Z,49.34
2022-09-10T21:28:56.718Z,49.32
2022-09-10T21:31:24.316Z,49.39
2022-09-10T21:33:51.264Z,49.48
2022-09-10T21:36:19.220Z,50.17
2022-09-10T21:38:56.726Z,50.61
2022-09-10T21:41:27.927Z,49.90
2022-09-10T21:43:54.755Z,51.14
2022-09-10T21:46:21.286Z,50.83
2022-09-10T21:48:48.174Z,51.16
2022-09-10T21:51:16.695Z,51.02
2022-09-10T21:53:44.257Z,51.04
2022-09-10T21:56:16.690Z,50.91
2022-09-10T21:58:45.346Z,50.09
2022-09-10T22:01:14.589Z,50.34
2022-09-10T22:03:41.786Z,50.34
2022-09-10T22:06:10.005Z,49.93
2022-09-10T22:08:38.674Z,48.94
2022-09-10T22:11:14.442Z,49.70
2022-09-10T22:13:42.220Z,49.47
2022-09-10T22:16:10.639Z,49.35
2022-09-10T22:18:37.944Z,49.58
2022-09-10T22:21:05.448Z,49.31
2022-09-10T22:23:34.677Z,48.79
2022-09-10T22:26:11.087Z,48.99
2022-09-10T22:28:38.910Z,49.56
2022-09-10T22:31:20.799Z,50.21
2022-09-10T22:33:53.238Z,49.97
2022-09-10T22:36:30.838Z,50.95
2022-09-10T22:39:00.302Z,50.41
2022-09-10T22:41:28.949Z,51.27
2022-09-10T22:43:55.541Z,51.08
2022-09-10T22:46:24.038Z,52.41
2022-09-10T22:48:50.805Z,52.60
2022-09-10T22:51:20.083Z,52.24
2022-09-10T22:53:47.071Z,52.78
2022-09-10T22:56:15.793Z,52.51
2022-09-10T22:58:42.685Z,53.51
2022-09-10T23:01:12.401Z,53.91
2022-09-10T23:03:39.938Z,53.98
2022-09-10T23:06:19.189Z,53.66
2022-09-10T23:08:49.138Z,55.19
2022-09-10T23:11:20.926Z,54.78
2022-09-10T23:13:50.392Z,54.85
2022-09-10T23:16:20.000Z,55.33
2022-09-10T23:18:50.502Z,56.00
2022-09-10T23:21:22.998Z,57.05
2022-09-10T23:23:52.786Z,56.97
2022-09-10T23:26:19.805Z,57.92
2022-09-10T23:28:46.798Z,56.78
2022-09-10T23:31:23.779Z,57.69
2022-09-10T23:34:07.826Z,57.51
2022-09-10T23:36:37.098Z,58.23
2022-09-10T23:39:09.314Z,58.72
2022-09-10T23:41:36.827Z,57.80
2022-09-10T23:44:03.755Z,59.00
2022-09-10T23:46:30.955Z,59.59
2022-09-10T23:48:57.950Z,59.08
2022-09-10T23:51:24.496Z,58.92
2022-09-10T23:53:51.041Z,59.39
2022-09-10T23:56:19.722Z,58.84
2022-09-10T23:58:47.782Z,60.07
